• Join FlightAware (Why Join?)
  • Login
  • US Flag 
11:05AM EST


 

Airport Tracker/Info


-or-


 

Live Flight TrackerFlight Track Log ✈ AWE1940 ✈ 10-Aug-2013 ✈ KDFW - KCLT

Flight Track Log - Related Links

Times and Time Zones

All times are in EDT time to prevent confusion due to time zone crossing. See the AWE1940 flight status page for this flight to view local times or setup timezone preferences in your user account.

Time Position Orientation Groundspeed Altitude Reporting Facility
EDT Latitude Longitude Course Direction KTS MPH feet Rate Location/Type
06:41PM 32.9167 -97.0333 North 173 199 1,200  Level Dallas / Fort Worth TRACON
06:42PM 32.9667 -97.0333 360° North 218 251 2,900 2,100 Climbing Dallas / Fort Worth TRACON
06:43PM 33.0333 -97.0167 12° North 235 270 5,400 2,400 Climbing Dallas / Fort Worth TRACON
06:44PM 32.8534 -96.8000 North  Level FlightAware Approximate
06:45PM 32.9743 -96.8000 North  Level FlightAware Approximate
06:45PM 33.1894 -96.9517 19° North 283 326 10,600  Level Fort Worth Center
06:46PM 33.0951 -96.8000 North  Level FlightAware Approximate
06:46PM 33.2750 -96.9092 23° Northeast 306 352 11,600  Level Fort Worth Center
06:47PM 33.3708 -96.8614 23° Northeast 358 412 14,000 2,100 Climbing Fort Worth Center
06:48PM 33.4686 -96.8108 23° Northeast 375 432 15,900 2,280 Climbing Fort Worth Center
06:49PM 33.5642 -96.7503 28° Northeast 386 444 18,600 1,920 Climbing Fort Worth Center
06:50PM 33.6642 -96.6897 27° Northeast 391 450 19,800 1,380 Climbing Fort Worth Center
06:51PM 33.7661 -96.6214 29° Northeast 403 464 21,400 1,320 Climbing Fort Worth Center
06:52PM 33.8719 -96.5556 27° Northeast 410 472 22,500 1,200 Climbing Fort Worth Center
06:53PM 33.9800 -96.4842 29° Northeast 424 488 23,800 1,260 Climbing Fort Worth Center
06:54PM 34.0881 -96.4078 30° Northeast 431 496 25,100 1,200 Climbing Fort Worth Center
06:55PM 34.1894 -96.3264 34° Northeast 436 502 26,200 900 Climbing Fort Worth Center
06:56PM 34.2972 -96.2394 34° Northeast 451 519 27,000 1,020 Climbing Fort Worth Center
06:57PM 34.4069 -96.1447 35° Northeast 468 539 28,300 1,500 Climbing Fort Worth Center
06:58PM 34.5167 -96.0600 32° Northeast 473 544 30,100 1,320 Climbing Fort Worth Center
06:59PM 34.6242 -95.9675 35° Northeast 468 539 31,000 420 Climbing Fort Worth Center
07:00PM 34.7294 -95.8772 35° Northeast 463 533 31,000  Level Fort Worth Center
07:01PM 34.8369 -95.7919 33° Northeast 463 533 31,000  Level Fort Worth Center
07:02PM 34.9253 -95.6967 41° Northeast 463 533 31,000  Level Fort Worth Center
07:04PM 35.0978 -95.4939 44° Northeast 474 545 31,000  Level Memphis Center
07:05PM 35.1858 -95.3747 48° Northeast 479 551 31,000  Level Memphis Center
07:06PM 35.2236 -95.2144 74° East 462 532 31,000  Level Memphis Center
07:07PM 35.2589 -95.0586 74° East 475 547 31,000  Level Memphis Center
07:08PM 35.2961 -94.8981 74° East 475 547 31,000  Level Memphis Center
07:09PM 35.3308 -94.7397 75° East 475 547 31,000  Level Memphis Center
07:10PM 35.3678 -94.5786 74° East 475 547 31,000  Level Memphis Center
07:11PM 35.4022 -94.4197 75° East 475 547 31,000  Level Memphis Center
07:12PM 35.4344 -94.2583 76° East 485 558 31,000  Level Memphis Center
07:13PM 35.4686 -94.0994 75° East 485 558 31,000  Level Memphis Center
07:14PM 35.5044 -93.9403 74° East 485 558 31,000  Level Memphis Center
07:15PM 35.5425 -93.7811 74° East 485 558 31,000  Level Memphis Center
07:16PM 35.5739 -93.6217 76° East 485 558 31,000  Level Memphis Center
07:17PM 35.6092 -93.4622 75° East 485 558 31,000  Level Memphis Center
07:18PM 35.6486 -93.3000 73° East 470 541 31,000  Level Memphis Center
07:19PM 35.6792 -93.1428 77° East 483 556 31,000  Level Memphis Center
07:20PM 35.7119 -92.9853 76° East 483 556 31,000  Level Memphis Center
07:21PM 35.7442 -92.8278 76° East 483 556 31,000  Level Memphis Center
07:22PM 35.7767 -92.6547 77° East 483 556 31,000  Level Memphis Center
07:23PM 35.8089 -92.4969 76° East 478 550 31,000  Level Memphis Center
07:24PM 35.8406 -92.3364 76° East 478 550 31,000  Level Memphis Center
07:25PM 35.8703 -92.1758 77° East 473 544 31,000  Level Memphis Center
07:26PM 35.8786 -92.0144 86° East 473 544 31,000  Level Memphis Center
07:27PM 35.8911 -91.8508 85° East 473 544 31,000  Level Memphis Center
07:28PM 35.9033 -91.6897 85° East 473 544 31,000  Level Memphis Center
07:29PM 35.9133 -91.5308 86° East 473 544 31,000  Level Memphis Center
07:30PM 35.9189 -91.3847 87° East 473 544 31,000  Level Memphis Center
07:31PM 35.9283 -91.2183 86° East 478 550 31,000  Level Memphis Center
07:32PM 35.9397 -91.0569 85° East 478 550 31,000  Level Memphis Center
07:33PM 35.9489 -90.8928 86° East 478 550 31,000  Level Memphis Center
07:34PM 35.9600 -90.7314 85° East 478 550 31,000  Level Memphis Center
07:35PM 35.9728 -90.5672 84° East 478 550 31,000  Level Memphis Center
07:36PM 35.9814 -90.4031 86° East 478 550 31,000  Level Memphis Center
07:37PM 35.9897 -90.2417 86° East 478 550 31,000  Level Memphis Center
07:38PM 35.9997 -90.0772 86° East 478 550 31,000  Level Memphis Center
07:39PM 36.0097 -89.9131 86° East 478 550 31,000  Level Memphis Center
07:40PM 36.0175 -89.7489 87° East 478 550 31,000  Level Memphis Center
07:41PM 36.0228 -89.5844 88° East 478 550 31,000  Level Memphis Center
07:42PM 36.0319 -89.4200 86° East 478 550 31,000  Level Memphis Center
07:43PM 36.0408 -89.2353 87° East 483 556 31,000  Level Memphis Center
07:44PM 36.0497 -89.0708 86° East 483 556 31,000  Level Memphis Center
07:45PM 36.0583 -88.9039 86° East 483 556 31,000  Level Memphis Center
07:46PM 36.0667 -88.7367 86° East 483 556 31,000  Level Memphis Center
07:47PM 36.0728 -88.5722 87° East 478 550 31,000  Level Memphis Center
07:48PM 36.0786 -88.4053 87° East 478 550 31,000  Level Memphis Center
07:49PM 36.0864 -88.2433 87° East 478 550 31,000  Level Memphis Center
07:50PM 36.0919 -88.0839 87° East 478 550 31,000  Level Memphis Center
07:51PM 36.0992 -87.9167 87° East 478 550 31,000  Level Memphis Center
07:52PM 36.1044 -87.7753 87° East 473 544 31,000  Level Memphis Center
07:53PM 36.1092 -87.6056 88° East 478 550 31,000  Level Memphis Center
07:54PM 36.1158 -87.4408 87° East 478 550 31,000  Level Memphis Center
07:55PM 36.1181 -87.2764 89° East 483 556 31,000  Level Memphis Center
07:56PM 36.1244 -87.1089 87° East 483 556 31,000  Level Memphis Center
07:57PM 36.1261 -86.9419 89° East 483 556 31,000  Level Memphis Center
07:58PM 36.1317 -86.7747 88° East 483 556 31,000  Level Memphis Center
07:59PM 36.1289 -86.6078 91° East 483 556 31,000  Level Memphis Center
08:00PM 36.1175 -86.4414 95° East 478 550 31,000  Level Memphis Center
08:01PM 36.1058 -86.2747 95° East 478 550 31,000  Level Memphis Center
08:02PM 36.0939 -86.1058 95° East 483 556 31,000  Level Memphis Center
08:03PM 36.0797 -85.9397 96° East 483 556 31,000  Level Memphis Center
08:04PM 36.0619 -85.6853 95° East 498 573 31,000  Level Atlanta Center
08:05PM 36.0494 -85.5206 95° East 498 573 31,000  Level Atlanta Center
08:06PM 36.0344 -85.3586 96° East 487 560 31,000  Level Atlanta Center
08:07PM 36.0217 -85.1914 95° East 482 555 31,000  Level Atlanta Center
08:08PM 36.0083 -85.0269 96° East 482 555 31,000  Level Atlanta Center
08:09PM 35.9953 -84.8447 95° East 482 555 31,000 -420 Level Atlanta Center
08:10PM 35.9775 -84.6750 97° East 488 562 30,200 -1,020 Descending Atlanta Center
08:11PM 35.9614 -84.5108 97° East 488 562 29,000 -600 Descending Atlanta Center
08:12PM 35.9453 -84.3492 97° East 481 554 29,000  Level Atlanta Center
08:13PM 35.9308 -84.1822 96° East 481 554 29,000  Level Atlanta Center
08:14PM 35.9144 -84.0156 97° East 487 560 29,000  Level Atlanta Center
08:15PM 35.9017 -83.8517 95° East 482 555 29,000  Level Atlanta Center
08:16PM 35.8992 -83.6850 91° East 482 555 29,000  Level Atlanta Center
08:17PM 35.8967 -83.5158 91° East 482 555 29,000  Level Atlanta Center
08:18PM 35.8914 -83.3442 92° East 482 555 29,000  Level Atlanta Center
08:19PM 35.8883 -83.1750 91° East 488 562 29,000 -180 Level Atlanta Center
08:20PM 35.8850 -83.0108 91° East 488 562 28,700 -1,200 Descending Atlanta Center
08:21PM 35.8542 -82.8447 103° East 488 562 26,700 -2,100 Descending Atlanta Center
08:22PM 35.8214 -82.6839 104° East 488 562 24,600 -2,040 Descending Atlanta Center
08:23PM 35.7925 -82.5283 103° East 475 547 22,700 -1,800 Descending Atlanta Center
08:24PM 35.7633 -82.3753 103° East 464 534 21,000 -1,680 Descending Atlanta Center
08:25PM 35.7361 -82.2275 103° East 458 527 19,400 -1,500 Descending Atlanta Center
08:26PM 35.7089 -82.0847 103° East 440 506 18,000 -1,680 Descending Atlanta Center
08:27PM 35.6864 -81.9806 105° East 433 498 16,600 -1,800 Descending Atlanta Center
08:28PM 35.6519 -81.8050 104° East 415 478 14,500 -1,500 Descending Atlanta Center
08:29PM 35.6244 -81.6731 104° East 410 472 13,300 -780 Descending Atlanta Center
08:30PM 35.5889 -81.5592 111° Southeast 382 440 13,000 -600 Descending Atlanta Center
08:31PM 35.5308 -81.4714 129° Southeast 343 395 12,200 -1,020 Descending Atlanta Center
08:32PM 35.4747 -81.3892 130° Southeast 326 375 11,000 -600 Descending Atlanta Center
08:33PM 35.4186 -81.3042 129° Southeast 315 362 11,000  Level Atlanta Center
08:34PM 35.3647 -81.2244 130° Southeast 315 362 11,000 -300 Level Atlanta Center
08:35PM 35.3128 -81.1500 131° Southeast 301 346 10,500 -540 Descending Atlanta Center
08:36PM 35.2569 -81.0781 134° Southeast 291 335 10,000 -1,140 Descending Atlanta Center
08:38PM 35.1564 -81.0667 175° South 260 299 7,900 -2,040 Descending Atlanta Center
08:39PM 35.0875 -81.0564 173° South 249 287 5,200 -2,040 Descending Atlanta Center
08:40PM 35.0522 -80.9867 122° Southeast 241 277 3,800 -1,200 Descending Atlanta Center
08:41PM 35.0914 -80.9597 29° Northeast 181 208 2,800 -900 Descending Atlanta Center
08:42PM 35.1331 -80.9606 359° North 138 159 2,000 -840 Descending Atlanta Center
08:43PM 35.1725 -80.9517 10° North 143 165 1,200 -840 Descending Atlanta Center